Time;durP1;ratioP1;P1;durP2;ratioP2;P2;SDS_P1;SDS_P2;PMS_P1;PMS_P2;Temp;Humidity;BMP_temperature;BMP_pressure;BME280_temperature;BME280_humidity;BME280_pressure;Samples;Min_cycle;Max_cycle;Signal;HPM_P1;HPM_P2
2022/03/15 00:01:44;;;;;;;2.00;0.77;;;25.90;96.70;;;;;;5016843;28;20021;-69
2022/03/15 00:04:11;;;;;;;4.25;1.25;;;26.10;96.60;;;;;;5018678;28;20052;-69
2022/03/15 00:06:38;;;;;;;1.95;0.68;;;26.20;96.60;;;;;;5019891;28;20205;-69
2022/03/15 00:09:04;;;;;;;2.00;0.60;;;26.20;97.00;;;;;;5013432;28;20500;-69
2022/03/15 00:11:34;;;;;;;3.35;0.90;;;26.40;95.80;;;;;;5026225;28;20436;-70
2022/03/15 00:14:02;;;;;;;2.33;0.65;;;26.60;96.00;;;;;;5023234;28;20136;-69
2022/03/15 00:16:28;;;;;;;2.88;0.95;;;26.70;95.50;;;;;;5027762;28;20365;-66
2022/03/15 00:18:57;;;;;;;3.22;1.00;;;26.80;94.50;;;;;;5021672;28;20084;-69
2022/03/15 00:21:25;;;;;;;2.70;0.70;;;26.80;94.30;;;;;;5022541;28;20033;-68
2022/03/15 00:23:52;;;;;;;3.47;1.05;;;26.80;93.80;;;;;;5016280;28;20018;-69
2022/03/15 00:26:18;;;;;;;4.38;0.93;;;26.80;94.20;;;;;;5018981;28;20025;-65
2022/03/15 00:28:45;;;;;;;5.05;1.40;;;26.80;93.50;;;;;;5014236;28;20092;-68
2022/03/15 00:31:12;;;;;;;4.38;1.13;;;26.80;94.60;;;;;;5024669;28;20104;-68
2022/03/15 00:33:40;;;;;;;6.55;1.67;;;27.10;94.40;;;;;;5027381;28;20084;-66
2022/03/15 00:36:07;;;;;;;13.07;10.85;;;27.20;94.40;;;;;;5011550;28;20436;-68
2022/03/15 00:38:34;;;;;;;6.60;1.10;;;27.40;94.10;;;;;;5021476;28;20484;-67
2022/03/15 00:41:01;;;;;;;3.67;1.40;;;27.40;92.50;;;;;;5023827;28;20124;-65
2022/03/15 00:43:28;;;;;;;3.15;0.63;;;27.30;93.10;;;;;;5022954;28;20467;-67
2022/03/15 00:45:56;;;;;;;4.72;0.80;;;27.30;91.60;;;;;;5024589;28;20033;-64
2022/03/15 00:48:23;;;;;;;2.80;1.02;;;27.50;92.20;;;;;;5021882;28;20025;-69
2022/03/15 00:50:50;;;;;;;3.38;1.00;;;27.70;91.40;;;;;;5025219;28;20116;-68
2022/03/15 00:53:17;;;;;;;2.03;0.75;;;27.60;91.00;;;;;;5025674;28;20412;-65
2022/03/15 00:55:44;;;;;;;3.00;0.57;;;27.60;91.00;;;;;;5023688;28;20060;-67
2022/03/15 00:58:11;;;;;;;3.60;0.50;;;27.10;91.10;;;;;;5024552;28;20022;-65
2022/03/15 01:00:38;;;;;;;1.77;0.80;;;27.10;91.50;;;;;;5026366;28;20387;-67
2022/03/15 01:03:05;;;;;;;2.90;0.75;;;27.20;90.80;;;;;;5025278;28;20025;-67
2022/03/15 01:05:33;;;;;;;4.68;0.82;;;27.30;90.20;;;;;;5023365;28;20410;-68
2022/03/15 01:08:00;;;;;;;4.18;1.15;;;27.40;90.60;;;;;;5024199;28;20022;-67
2022/03/15 01:10:27;;;;;;;3.53;0.73;;;27.80;90.40;;;;;;5026028;28;20125;-67
2022/03/15 01:12:54;;;;;;;2.92;1.20;;;27.80;87.80;;;;;;5021295;28;20467;-65
2022/03/15 01:15:24;;;;;;;4.38;3.65;;;27.80;89.20;;;;;;5022477;28;20026;-67
2022/03/15 01:17:52;;;;;;;2.53;1.23;;;28.00;87.50;;;;;;5022869;28;20037;-68
2022/03/15 01:20:19;;;;;;;2.97;1.13;;;28.40;86.90;;;;;;5022673;28;20213;-68
2022/03/15 01:22:46;;;;;;;4.18;2.35;;;28.70;86.20;;;;;;5022021;28;20022;-65
2022/03/15 01:25:13;;;;;;;2.55;1.02;;;28.90;85.40;;;;;;5024433;28;20036;-68
2022/03/15 01:27:40;;;;;;;3.65;1.00;;;28.60;82.90;;;;;;5023095;28;20033;-68
2022/03/15 01:30:07;;;;;;;2.63;0.90;;;28.30;82.80;;;;;;5025000;28;20452;-69
2022/03/15 01:32:34;;;;;;;2.35;0.70;;;28.50;82.90;;;;;;5019727;28;20028;-65
2022/03/15 01:35:04;;;;;;;2.67;1.05;;;28.60;82.30;;;;;;5024404;28;20075;-68
2022/03/15 01:37:31;;;;;;;5.03;0.82;;;28.60;81.70;;;;;;5023403;28;20084;-66
2022/03/15 01:39:58;;;;;;;3.97;0.82;;;28.80;82.20;;;;;;5024288;28;20033;-69
2022/03/15 01:42:25;;;;;;;2.45;0.80;;;29.10;80.10;;;;;;5022043;28;20119;-67
2022/03/15 01:44:53;;;;;;;6.50;1.33;;;29.00;80.00;;;;;;5024087;28;20483;-68
2022/03/15 01:47:20;;;;;;;2.10;0.60;;;29.20;80.60;;;;;;5020478;28;20047;-68
2022/03/15 01:49:47;;;;;;;2.97;0.80;;;29.50;79.30;;;;;;5024908;28;20024;-67
2022/03/15 01:52:15;;;;;;;10.20;8.07;;;29.60;78.70;;;;;;5021847;28;20032;-68
2022/03/15 01:54:44;;;;;;;10.10;6.38;;;29.50;79.60;;;;;;5021763;28;20043;-64
2022/03/15 01:57:12;;;;;;;3.97;1.02;;;29.70;77.70;;;;;;5023249;28;20026;-67
2022/03/15 01:59:39;;;;;;;3.63;1.02;;;29.80;76.70;;;;;;5020701;28;20022;-65
2022/03/15 02:02:06;;;;;;;4.82;0.95;;;29.60;76.70;;;;;;5024591;28;20033;-65
2022/03/15 02:04:36;;;;;;;5.03;3.00;;;29.60;76.80;;;;;;5021503;28;20025;-66
2022/03/15 02:07:12;;;;;;;2.38;0.90;;;29.70;78.90;;;;;;5021117;28;20029;-66
2022/03/15 02:09:40;;;;;;;5.82;1.10;;;29.90;77.70;;;;;;5018834;28;20079;-64
2022/03/15 02:12:08;;;;;;;5.75;2.22;;;30.00;77.30;;;;;;5022931;28;20083;-64
2022/03/15 02:14:35;;;;;;;5.20;1.23;;;30.30;78.10;;;;;;5021639;28;20022;-66
2022/03/15 02:17:02;;;;;;;3.63;1.02;;;30.40;76.40;;;;;;5023726;28;20025;-66
2022/03/15 02:19:29;;;;;;;3.95;1.25;;;30.40;74.70;;;;;;5024381;28;20061;-66
2022/03/15 02:21:59;;;;;;;3.83;1.20;;;30.00;76.20;;;;;;5021313;28;20029;-65
2022/03/15 02:24:27;;;;;;;3.00;1.30;;;30.10;74.20;;;;;;5025711;28;20041;-66
2022/03/15 02:26:53;;;;;;;4.38;1.30;;;30.40;73.30;;;;;;5022003;28;20156;-71
2022/03/15 02:29:22;;;;;;;4.57;0.82;;;30.40;74.20;;;;;;5022951;28;20029;-64
2022/03/15 02:31:49;;;;;;;4.63;1.10;;;30.70;72.50;;;;;;5023103;28;20029;-70
2022/03/15 02:34:19;;;;;;;3.67;0.80;;;30.70;71.80;;;;;;5019641;28;20029;-65
2022/03/15 02:36:46;;;;;;;5.97;1.42;;;30.90;72.30;;;;;;5027077;28;20033;-66
2022/03/15 02:39:13;;;;;;;6.30;2.05;;;30.50;76.30;;;;;;5023548;28;20037;-67
2022/03/15 02:41:40;;;;;;;3.97;2.03;;;29.70;76.90;;;;;;5022396;28;20116;-65
2022/03/15 02:44:08;;;;;;;6.20;1.27;;;28.90;78.80;;;;;;5021908;28;20022;-67
2022/03/15 02:46:39;;;;;;;5.28;1.05;;;28.30;79.50;;;;;;5022960;28;20021;-66
2022/03/15 02:49:06;;;;;;;4.20;1.35;;;28.10;83.00;;;;;;5023283;28;20203;-67
2022/03/15 02:51:33;;;;;;;4.40;1.33;;;28.70;82.20;;;;;;5022138;28;20467;-64
2022/03/15 02:54:01;;;;;;;4.30;1.67;;;29.40;82.60;;;;;;5021448;28;20020;-66
2022/03/15 02:56:29;;;;;;;3.47;1.45;;;30.00;80.50;;;;;;5022024;28;20013;-67
2022/03/15 02:58:56;;;;;;;6.40;1.33;;;30.60;80.60;;;;;;5022827;28;20036;-66
2022/03/15 03:01:24;;;;;;;5.50;1.38;;;30.10;81.60;;;;;;5023843;28;20511;-63
2022/03/15 03:03:53;;;;;;;3.92;1.60;;;28.70;85.10;;;;;;5026078;28;20076;-66
2022/03/15 03:06:20;;;;;;;7.22;1.70;;;27.70;88.60;;;;;;5026347;28;20566;-67
2022/03/15 03:08:47;;;;;;;8.43;2.92;;;27.80;89.60;;;;;;5025091;28;20025;-67
2022/03/15 03:11:14;;;;;;;6.97;1.63;;;27.70;90.30;;;;;;5028557;28;20033;-67
2022/03/15 03:13:44;;;;;;;6.97;1.40;;;27.50;90.00;;;;;;5024605;28;20037;-66
2022/03/15 03:16:12;;;;;;;6.72;2.63;;;27.20;90.90;;;;;;5026262;28;20500;-67
2022/03/15 03:18:39;;;;;;;5.93;1.35;;;26.80;91.80;;;;;;5024384;28;20036;-65
2022/03/15 03:21:06;;;;;;;4.53;1.60;;;26.60;92.60;;;;;;5024060;28;20038;-67
2022/03/15 03:23:39;;;;;;;8.13;1.85;;;26.50;93.10;;;;;;5028755;28;20342;-67
2022/03/15 03:26:06;;;;;;;;;;;26.20;93.60;;;;;;5023876;28;20432;-65
2022/03/15 03:28:39;;;;;;;6.18;1.35;;;26.40;93.50;;;;;;5029545;28;19909;-64
2022/03/15 03:31:11;;;;;;;3.47;1.08;;;26.50;93.70;;;;;;5023315;28;20041;-64
2022/03/15 03:33:38;;;;;;;;;;;26.30;93.40;;;;;;5023469;28;20091;-66
2022/03/15 03:36:06;;;;;;;7.05;1.45;;;26.20;93.50;;;;;;5029748;28;19912;-65
2022/03/15 03:38:34;;;;;;;6.55;1.70;;;26.90;92.50;;;;;;5022581;28;20394;-63
2022/03/15 03:41:01;;;;;;;5.18;1.55;;;27.50;92.70;;;;;;5024042;28;20029;-67
2022/03/15 03:43:28;;;;;;;4.07;1.30;;;28.00;91.90;;;;;;5029232;28;20021;-66
2022/03/15 03:45:56;;;;;;;4.35;1.10;;;28.10;91.20;;;;;;5026458;28;20022;-66
2022/03/15 03:48:24;;;;;;;9.00;1.40;;;28.20;91.10;;;;;;5025216;28;20478;-65
2022/03/15 03:50:51;;;;;;;3.92;1.38;;;28.40;90.60;;;;;;5008233;28;20041;-62
2022/03/15 03:53:21;;;;;;;6.97;1.70;;;28.40;89.60;;;;;;5022036;28;20026;-65
2022/03/15 03:55:48;;;;;;;6.95;2.03;;;28.30;90.50;;;;;;5020275;28;20598;-66
2022/03/15 03:58:15;;;;;;;4.97;1.60;;;28.40;90.10;;;;;;5024553;28;20070;-67
2022/03/15 04:00:42;;;;;;;3.22;1.08;;;28.30;90.40;;;;;;5024342;28;20037;-66
2022/03/15 04:03:13;;;;;;;6.85;1.85;;;27.90;89.10;;;;;;5021881;28;20026;-65
2022/03/15 04:05:40;;;;;;;4.38;1.23;;;27.70;90.40;;;;;;5026922;28;20033;-63
2022/03/15 04:08:07;;;;;;;5.63;1.67;;;28.10;90.50;;;;;;5027333;28;20468;-65
2022/03/15 04:10:37;;;;;;;4.32;1.30;;;28.70;88.60;;;;;;5024269;28;20116;-64
2022/03/15 04:13:04;;;;;;;5.32;1.38;;;28.90;87.10;;;;;;5021824;28;20029;-63
2022/03/15 04:15:32;;;;;;;4.82;1.42;;;29.00;86.60;;;;;;5023453;28;20037;-65
2022/03/15 04:17:59;;;;;;;4.57;1.05;;;29.10;84.70;;;;;;5021811;28;20030;-66
2022/03/15 04:20:26;;;;;;;5.72;1.23;;;29.20;84.60;;;;;;5020140;28;20124;-63
2022/03/15 04:22:53;;;;;;;3.08;1.30;;;29.10;82.90;;;;;;5024831;28;20056;-67
2022/03/15 04:25:20;;;;;;;6.43;1.88;;;29.10;82.50;;;;;;5024681;28;20084;-65
2022/03/15 04:27:47;;;;;;;3.47;0.90;;;29.40;83.20;;;;;;5024916;28;20091;-65
2022/03/15 04:30:14;;;;;;;4.63;1.30;;;29.60;81.40;;;;;;5024503;28;20475;-64
2022/03/15 04:32:41;;;;;;;7.10;3.38;;;29.20;83.30;;;;;;5022381;28;20034;-66
2022/03/15 04:35:08;;;;;;;7.00;1.55;;;29.40;83.00;;;;;;5020794;28;20112;-66
2022/03/15 04:37:35;;;;;;;5.70;1.45;;;29.60;82.10;;;;;;5027686;28;20053;-66
2022/03/15 04:40:02;;;;;;;5.05;1.23;;;29.20;83.70;;;;;;5024613;28;20455;-63
2022/03/15 04:42:29;;;;;;;4.90;1.30;;;28.70;82.80;;;;;;5024913;28;20065;-63
2022/03/15 04:44:56;;;;;;;3.50;1.10;;;29.10;82.10;;;;;;5024574;28;20033;-67
2022/03/15 04:47:23;;;;;;;4.35;1.20;;;29.30;80.50;;;;;;5025800;28;20044;-67
2022/03/15 04:49:50;;;;;;;4.13;1.13;;;29.30;81.70;;;;;;5025089;28;20029;-63
2022/03/15 04:52:17;;;;;;;6.63;3.03;;;29.70;82.10;;;;;;5024863;28;20025;-64
2022/03/15 04:54:45;;;;;;;4.55;1.45;;;30.10;81.00;;;;;;5024811;28;20079;-64
2022/03/15 04:57:12;;;;;;;5.82;1.55;;;30.20;79.80;;;;;;5024589;28;20033;-67
2022/03/15 04:59:39;;;;;;;4.95;1.30;;;29.50;82.40;;;;;;5023904;28;20029;-63
2022/03/15 05:02:06;;;;;;;4.93;1.38;;;28.50;85.00;;;;;;5023470;28;20061;-67
2022/03/15 05:04:34;;;;;;;5.55;1.48;;;28.10;88.20;;;;;;5024420;28;20036;-62
2022/03/15 05:07:02;;;;;;;4.25;0.93;;;28.40;87.90;;;;;;5024760;28;20077;-68
2022/03/15 05:09:28;;;;;;;4.03;1.55;;;28.50;87.60;;;;;;5023454;28;20021;-66
2022/03/15 05:11:55;;;;;;;5.57;1.33;;;28.30;88.30;;;;;;5025076;28;20448;-63
2022/03/15 05:14:22;;;;;;;4.05;1.25;;;28.20;89.50;;;;;;5026351;28;20061;-63
2022/03/15 05:16:49;;;;;;;3.92;1.50;;;28.50;89.60;;;;;;5025938;28;20538;-70
2022/03/15 05:19:16;;;;;;;5.75;1.52;;;28.60;90.00;;;;;;5023192;28;20106;-71
2022/03/15 05:21:43;;;;;;;4.28;1.40;;;28.60;89.70;;;;;;5024227;28;20033;-69
2022/03/15 05:24:10;;;;;;;6.63;1.67;;;28.40;89.70;;;;;;5026301;28;20045;-69
2022/03/15 05:26:37;;;;;;;6.13;1.50;;;28.20;90.40;;;;;;5024522;28;20388;-65
2022/03/15 05:29:05;;;;;;;5.38;1.30;;;28.20;90.50;;;;;;5023374;28;20026;-70
2022/03/15 05:31:32;;;;;;;6.40;1.45;;;28.20;87.70;;;;;;5024923;28;21293;-65
2022/03/15 05:33:59;;;;;;;4.95;1.30;;;28.20;90.00;;;;;;5026452;28;20029;-65
2022/03/15 05:36:26;;;;;;;4.68;1.23;;;28.30;88.50;;;;;;5026107;28;20108;-71
2022/03/15 05:38:53;;;;;;;4.97;1.50;;;28.30;88.40;;;;;;5024677;28;20096;-69
2022/03/15 05:41:20;;;;;;;2.72;1.25;;;28.20;88.60;;;;;;5023893;28;20399;-66
2022/03/15 05:43:47;;;;;;;8.10;1.67;;;28.30;90.00;;;;;;5025037;28;20030;-70
2022/03/15 05:46:14;;;;;;;7.13;1.35;;;28.30;89.20;;;;;;5025655;28;20029;-66
2022/03/15 05:48:41;;;;;;;6.22;1.85;;;27.90;90.60;;;;;;5026627;28;20064;-70
2022/03/15 05:51:08;;;;;;;3.40;0.93;;;27.90;91.10;;;;;;5008610;28;20033;-64
2022/03/15 05:53:35;;;;;;;5.40;1.48;;;27.80;90.60;;;;;;5026505;28;20125;-64
2022/03/15 05:56:02;;;;;;;4.57;1.30;;;27.90;90.40;;;;;;5025871;28;20157;-64
2022/03/15 05:58:29;;;;;;;4.15;1.33;;;27.60;90.70;;;;;;5025924;28;20026;-68
2022/03/15 06:00:56;;;;;;;4.65;1.42;;;27.50;91.20;;;;;;5023894;28;20024;-67
2022/03/15 06:03:23;;;;;;;5.10;1.60;;;27.20;91.60;;;;;;5021871;28;20102;-70
2022/03/15 06:05:52;;;;;;;3.80;1.30;;;27.00;91.90;;;;;;5024877;28;20029;-71
2022/03/15 06:08:19;;;;;;;5.38;1.35;;;27.20;92.00;;;;;;5020390;28;20021;-68
2022/03/15 06:10:47;;;;;;;4.85;1.80;;;27.40;91.70;;;;;;5016303;28;20506;-67
2022/03/15 06:13:13;;;;;;;9.82;1.48;;;27.50;91.00;;;;;;5023245;28;20033;-69
2022/03/15 06:15:41;;;;;;;3.83;1.23;;;27.50;91.20;;;;;;5022763;28;20032;-67
2022/03/15 06:18:08;;;;;;;5.95;1.52;;;27.40;91.10;;;;;;5010271;28;20037;-68
2022/03/15 06:20:35;;;;;;;6.65;1.73;;;27.70;91.00;;;;;;5010990;28;20048;-67
2022/03/15 06:23:02;;;;;;;4.20;1.15;;;27.90;90.50;;;;;;5024893;28;20024;-68
2022/03/15 06:25:30;;;;;;;4.35;1.20;;;27.50;91.30;;;;;;5024987;28;20037;-67
2022/03/15 06:27:57;;;;;;;3.67;1.20;;;27.00;91.90;;;;;;5018022;28;20437;-70
2022/03/15 06:30:24;;;;;;;7.82;1.20;;;26.50;92.10;;;;;;5010940;28;20029;-68
2022/03/15 06:32:52;;;;;;;5.10;1.25;;;26.30;92.50;;;;;;5016332;28;20025;-68
2022/03/15 06:35:19;;;;;;;5.30;1.52;;;26.50;92.50;;;;;;4998573;28;20087;-72
2022/03/15 06:37:50;;;;;;;5.43;1.23;;;26.40;92.50;;;;;;5022693;28;20052;-63
2022/03/15 06:40:22;;;;;;;5.03;1.50;;;26.30;92.50;;;;;;5019482;28;20033;-70
2022/03/15 06:42:50;;;;;;;5.63;1.65;;;25.90;92.80;;;;;;5023941;28;20065;-68
2022/03/15 06:45:17;;;;;;;6.80;1.50;;;25.70;93.60;;;;;;5024455;28;20037;-67
2022/03/15 06:47:44;;;;;;;3.85;1.30;;;25.90;93.50;;;;;;5018743;28;20549;-63
2022/03/15 06:50:12;;;;;;;7.18;1.40;;;26.10;93.20;;;;;;5019984;28;20037;-69
2022/03/15 06:52:41;;;;;;;11.13;7.55;;;26.30;93.50;;;;;;5018230;28;20029;-64
2022/03/15 06:55:09;;;;;;;4.80;1.92;;;26.10;95.10;;;;;;5022998;28;20033;-69
2022/03/15 06:57:35;;;;;;;8.13;2.20;;;25.50;96.40;;;;;;5021764;28;20029;-63
2022/03/15 07:00:07;;;;;;;7.95;1.63;;;25.20;97.30;;;;;;5019529;28;20116;-66
2022/03/15 07:02:34;;;;;;;9.52;2.10;;;24.90;98.80;;;;;;5022861;28;20025;-67
2022/03/15 07:05:01;;;;;;;10.10;2.05;;;24.60;99.80;;;;;;5019888;28;20116;-66
2022/03/15 07:07:28;;;;;;;4.85;1.05;;;24.50;99.50;;;;;;5021595;28;20030;-63
2022/03/15 07:09:55;;;;;;;4.15;1.58;;;24.40;99.70;;;;;;5022768;28;20808;-67
2022/03/15 07:12:24;;;;;;;8.60;2.10;;;24.30;99.90;;;;;;5020861;28;20030;-63
2022/03/15 07:14:51;;;;;;;5.35;1.67;;;24.10;99.90;;;;;;5020975;28;20026;-67
2022/03/15 07:17:19;;;;;;;5.80;1.55;;;23.90;99.90;;;;;;5017664;28;20025;-67
2022/03/15 07:19:46;;;;;;;6.05;1.85;;;23.80;99.90;;;;;;5018645;28;20095;-67
2022/03/15 07:22:13;;;;;;;5.50;1.48;;;23.60;99.90;;;;;;5017476;28;20388;-68
2022/03/15 07:24:40;;;;;;;6.03;1.55;;;23.50;99.90;;;;;;5014446;28;20021;-65
2022/03/15 07:27:07;;;;;;;4.25;1.40;;;23.50;99.90;;;;;;5009394;28;20632;-65
2022/03/15 07:29:34;;;;;;;8.10;1.38;;;23.60;99.90;;;;;;5009842;28;20420;-63
2022/03/15 07:32:01;;;;;;;8.40;1.77;;;23.50;99.90;;;;;;5013416;28;20523;-68
2022/03/15 07:34:28;;;;;;;6.22;1.50;;;23.50;99.90;;;;;;5021141;28;20032;-71
2022/03/15 07:36:55;;;;;;;10.20;1.75;;;23.50;99.90;;;;;;5020260;28;20046;-64
2022/03/15 07:39:23;;;;;;;3.75;1.50;;;23.30;99.90;;;;;;5020446;28;20022;-64
2022/03/15 07:41:50;;;;;;;8.30;2.30;;;23.20;99.90;;;;;;5015527;28;20030;-65
2022/03/15 07:44:17;;;;;;;4.38;1.73;;;23.30;99.90;;;;;;5018697;28;20029;-66
2022/03/15 07:46:48;;;;;;;6.57;1.70;;;23.80;99.90;;;;;;5010149;28;20060;-71
2022/03/15 07:49:22;;;;;;;4.80;1.55;;;24.10;99.90;;;;;;4999812;28;20113;-63
2022/03/15 07:51:49;;;;;;;7.68;3.60;;;24.10;99.90;;;;;;5012006;28;20537;-65
2022/03/15 07:54:17;;;;;;;5.28;1.35;;;23.80;99.90;;;;;;5021930;28;20087;-66
2022/03/15 07:56:45;;;;;;;8.20;1.75;;;23.40;99.90;;;;;;5022254;28;20057;-66
2022/03/15 07:59:12;;;;;;;8.00;1.75;;;23.10;99.90;;;;;;5017599;28;20490;-63
2022/03/15 08:01:39;;;;;;;5.97;1.52;;;22.90;99.90;;;;;;5015728;28;20026;-68
2022/03/15 08:04:06;;;;;;;7.07;1.83;;;22.70;99.90;;;;;;5019820;28;20029;-63
2022/03/15 08:06:35;;;;;;;6.03;1.27;;;22.50;99.90;;;;;;5012285;28;20025;-63
2022/03/15 08:09:03;;;;;;;8.13;1.40;;;22.40;99.90;;;;;;5022221;28;20468;-63
2022/03/15 08:11:30;;;;;;;4.53;1.10;;;22.30;99.90;;;;;;4992832;28;20026;-68
2022/03/15 08:13:58;;;;;;;4.75;1.48;;;22.30;99.90;;;;;;5013553;28;20038;-69
2022/03/15 08:16:26;;;;;;;10.23;2.15;;;22.20;99.90;;;;;;5014804;28;20041;-63
2022/03/15 08:18:54;;;;;;;5.50;1.88;;;22.10;99.90;;;;;;5013912;28;20045;-69
2022/03/15 08:21:26;;;;;;;4.57;1.50;;;22.10;99.90;;;;;;5020718;28;20439;-67
2022/03/15 08:23:53;;;;;;;7.65;1.60;;;22.00;99.90;;;;;;5023432;28;20030;-69
2022/03/15 08:26:21;;;;;;;8.07;2.05;;;21.90;99.90;;;;;;5024664;28;20365;-68
2022/03/15 08:28:48;;;;;;;6.32;1.30;;;21.80;99.90;;;;;;5023914;28;20459;-63
2022/03/15 08:31:16;;;;;;;5.90;1.75;;;21.80;99.90;;;;;;5025067;28;20030;-65
2022/03/15 08:33:44;;;;;;;5.68;1.65;;;21.70;99.90;;;;;;5020617;28;20032;-66
2022/03/15 08:36:13;;;;;;;6.10;1.50;;;21.70;99.90;;;;;;5024797;28;20085;-65
2022/03/15 08:38:41;;;;;;;5.43;1.30;;;21.60;99.90;;;;;;5010055;28;20408;-62
2022/03/15 08:41:08;;;;;;;8.85;1.75;;;21.60;99.90;;;;;;5025186;28;20033;-63
2022/03/15 08:43:36;;;;;;;8.50;2.03;;;21.50;99.90;;;;;;5019325;28;20112;-67
2022/03/15 08:46:03;;;;;;;5.13;1.35;;;21.50;99.90;;;;;;5023672;28;20032;-66
2022/03/15 08:48:30;;;;;;;5.03;1.48;;;21.40;99.90;;;;;;5025208;28;20152;-63
2022/03/15 08:51:00;;;;;;;5.55;1.70;;;21.40;99.90;;;;;;5026385;28;20044;-68
2022/03/15 08:53:32;;;;;;;6.30;1.40;;;21.20;99.90;;;;;;5027102;28;20436;-72
2022/03/15 08:56:00;;;;;;;7.57;1.63;;;21.20;99.90;;;;;;5024224;28;20029;-65
2022/03/15 08:58:27;;;;;;;4.72;1.60;;;21.20;99.90;;;;;;5025620;28;20040;-64
2022/03/15 09:00:54;;;;;;;6.93;2.17;;;21.10;99.90;;;;;;5026328;28;20510;-62
2022/03/15 09:03:22;;;;;;;10.50;1.90;;;21.10;99.90;;;;;;5025191;28;20076;-71
2022/03/15 09:05:49;;;;;;;6.93;1.75;;;21.10;99.90;;;;;;5023515;28;20022;-67
2022/03/15 09:08:16;;;;;;;8.43;2.08;;;21.10;99.90;;;;;;5025203;28;20102;-63
2022/03/15 09:10:45;;;;;;;7.03;1.77;;;21.00;99.90;;;;;;5024676;28;20091;-67
2022/03/15 09:13:12;;;;;;;10.32;2.72;;;21.00;99.90;;;;;;5024947;28;20774;-64
2022/03/15 09:15:39;;;;;;;8.70;2.80;;;20.90;99.90;;;;;;5021763;28;20041;-65
2022/03/15 09:18:07;;;;;;;10.02;2.42;;;20.80;99.90;;;;;;5024376;28;20091;-65
2022/03/15 09:20:34;;;;;;;6.80;2.13;;;20.90;99.90;;;;;;5019771;28;20124;-65
2022/03/15 09:23:02;;;;;;;6.53;1.50;;;20.80;99.90;;;;;;4325656;28;10000875;-72
2022/03/15 09:25:32;;;;;;;9.20;2.13;;;20.80;99.90;;;;;;5019625;28;20029;-70
2022/03/15 09:27:59;;;;;;;6.30;1.65;;;20.70;99.90;;;;;;5003542;28;20460;-63
2022/03/15 09:30:30;;;;;;;6.80;2.70;;;20.70;99.90;;;;;;5023497;28;20048;-65
2022/03/15 09:32:58;;;;;;;6.20;2.00;;;20.70;99.90;;;;;;5021028;28;20425;-72
2022/03/15 09:35:25;;;;;;;8.48;2.40;;;20.70;99.90;;;;;;5021644;28;20033;-69
2022/03/15 09:37:53;;;;;;;6.65;1.95;;;20.70;99.90;;;;;;5022095;28;20056;-68
2022/03/15 09:40:25;;;;;;;6.93;1.88;;;20.60;99.90;;;;;;5021135;28;20505;-61
2022/03/15 09:42:57;;;;;;;;;;;20.50;99.90;;;;;;5021374;28;20030;-71
2022/03/15 09:45:26;;;;;;;6.20;1.52;;;20.40;99.90;;;;;;5019908;28;19919;-64
2022/03/15 09:47:59;;;;;;;7.13;1.95;;;20.30;99.90;;;;;;5021705;28;20017;-65
2022/03/15 09:50:29;;;;;;;4.47;1.90;;;20.20;99.90;;;;;;5021074;28;20045;-64
2022/03/15 09:52:58;;;;;;;7.13;1.52;;;20.10;99.90;;;;;;5021163;28;20030;-65
2022/03/15 09:55:26;;;;;;;7.00;1.75;;;20.10;99.90;;;;;;5022062;28;20033;-68
2022/03/15 09:57:53;;;;;;;4.50;1.90;;;19.90;99.90;;;;;;5019933;28;20083;-65
2022/03/15 10:00:21;;;;;;;8.23;1.98;;;20.00;99.90;;;;;;5018130;28;20029;-70
2022/03/15 10:02:49;;;;;;;7.25;1.85;;;19.90;99.90;;;;;;5022965;28;20028;-64
2022/03/15 10:05:16;;;;;;;7.60;2.22;;;19.90;99.90;;;;;;5022199;28;20053;-63
2022/03/15 10:07:42;;;;;;;7.85;2.03;;;19.90;99.90;;;;;;5020348;28;20017;-69
2022/03/15 10:10:13;;;;;;;5.72;1.70;;;20.00;99.90;;;;;;5018589;28;20028;-64
2022/03/15 10:12:40;;;;;;;6.03;2.10;;;19.90;99.90;;;;;;5003013;28;20040;-70
2022/03/15 10:15:21;;;;;;;5.28;2.17;;;19.90;99.90;;;;;;5021610;28;20045;-69
2022/03/15 10:17:53;;;;;;;11.93;2.40;;;20.00;99.90;;;;;;5021973;28;20617;-65
2022/03/15 10:20:25;;;;;;;5.70;2.17;;;19.90;99.90;;;;;;5020674;28;20239;-64
2022/03/15 10:22:58;;;;;;;6.00;2.25;;;20.00;99.90;;;;;;4996475;28;20072;-69
2022/03/15 10:25:27;;;;;;;9.18;2.10;;;19.90;99.90;;;;;;5012475;28;20084;-65
2022/03/15 10:27:58;;;;;;;6.85;2.65;;;19.80;99.90;;;;;;5011406;28;20024;-66
2022/03/15 10:30:26;;;;;;;6.75;2.95;;;19.80;99.90;;;;;;5018864;28;20407;-69
2022/03/15 10:32:54;;;;;;;9.05;2.45;;;19.80;99.90;;;;;;5017023;28;20484;-69
2022/03/15 10:35:24;;;;;;;10.07;2.60;;;19.80;99.90;;;;;;5017280;28;20038;-69
2022/03/15 10:37:53;;;;;;;6.80;2.20;;;19.70;99.90;;;;;;5032146;23;20052;-64
2022/03/15 10:40:37;;;;;;;8.02;2.50;;;19.70;99.90;;;;;;5030095;28;20256;-68
2022/03/15 10:43:09;;;;;;;6.78;2.50;;;19.70;99.90;;;;;;5024826;28;20407;-65
2022/03/15 10:45:40;;;;;;;7.95;2.17;;;19.60;99.90;;;;;;5029368;28;20013;-66
2022/03/15 10:48:35;;;;;;;8.07;2.55;;;19.80;99.90;;;;;;5026911;28;20104;-66
2022/03/15 10:51:16;;;;;;;6.60;1.48;;;19.80;99.90;;;;;;5023687;28;20045;-68
2022/03/15 10:53:48;;;;;;;6.38;2.13;;;19.80;99.90;;;;;;5028972;28;20083;-63
2022/03/15 10:56:25;;;;;;;6.53;2.55;;;19.80;99.90;;;;;;5031034;28;20065;-68
2022/03/15 10:58:59;;;;;;;5.03;1.63;;;20.00;99.90;;;;;;5032673;28;20033;-63
2022/03/15 11:01:28;;;;;;;6.55;2.25;;;19.90;99.90;;;;;;5031880;28;20039;-68
2022/03/15 11:04:00;;;;;;;7.20;1.52;;;19.80;99.90;;;;;;5038128;28;20032;-68
2022/03/15 11:06:43;;;;;;;8.07;1.80;;;19.90;99.90;;;;;;5028601;28;20433;-68
2022/03/15 11:09:22;;;;;;;7.35;1.83;;;19.80;99.90;;;;;;5027507;28;20081;-63
2022/03/15 11:12:06;;;;;;;7.55;1.95;;;19.70;99.90;;;;;;5030085;28;20052;-62
2022/03/15 11:14:54;;;;;;;7.15;2.03;;;19.60;99.90;;;;;;5031735;28;20029;-70
2022/03/15 11:17:26;;;;;;;6.85;2.05;;;19.50;99.90;;;;;;5030108;28;20021;-69
2022/03/15 11:19:56;;;;;;;5.75;1.95;;;19.40;99.90;;;;;;5025418;28;20022;-62
2022/03/15 11:22:30;;;;;;;6.13;1.73;;;19.30;99.90;;;;;;5033872;28;20132;-61
2022/03/15 11:25:00;;;;;;;8.93;1.88;;;19.30;99.90;;;;;;5033912;28;20364;-62
2022/03/15 11:27:31;;;;;;;9.65;2.30;;;19.30;99.90;;;;;;5034786;28;20021;-69
2022/03/15 11:30:02;;;;;;;6.78;1.85;;;19.40;99.90;;;;;;5029621;28;20025;-62
2022/03/15 11:32:39;;;;;;;4.55;1.70;;;19.30;99.90;;;;;;5033104;28;20033;-63
2022/03/15 11:35:09;;;;;;;4.20;1.60;;;19.30;99.90;;;;;;5035998;28;20041;-69
2022/03/15 11:37:37;;;;;;;4.97;1.95;;;19.20;99.90;;;;;;5027469;28;20040;-67
2022/03/15 11:40:08;;;;;;;5.47;2.30;;;19.20;99.90;;;;;;5034287;28;20063;-67
2022/03/15 11:42:36;;;;;;;6.15;1.80;;;19.20;99.90;;;;;;5040092;28;20022;-70
2022/03/15 11:45:32;;;;;;;7.55;2.78;;;19.10;99.90;;;;;;5034401;28;20689;-63
2022/03/15 11:48:05;;;;;;;9.43;2.05;;;19.20;99.90;;;;;;5034948;28;20043;-64
2022/03/15 11:50:50;;;;;;;10.57;2.45;;;19.20;99.90;;;;;;5028111;28;20029;-63
2022/03/15 11:53:29;;;;;;;6.60;1.80;;;19.30;99.90;;;;;;5044606;28;20372;-62
2022/03/15 11:56:18;;;;;;;5.72;1.85;;;19.40;99.90;;;;;;5032530;28;20027;-69
2022/03/15 11:58:55;;;;;;;7.95;1.60;;;19.50;99.90;;;;;;5033652;28;20080;-62
2022/03/15 12:01:23;;;;;;;3.83;1.42;;;19.50;99.90;;;;;;5029417;28;20060;-61
2022/03/15 12:03:58;;;;;;;6.90;1.77;;;19.50;99.90;;;;;;5043084;28;20031;-68
2022/03/15 12:06:27;;;;;;;7.70;2.33;;;19.50;99.90;;;;;;5013085;28;20388;-64
2022/03/15 12:08:57;;;;;;;5.20;1.48;;;19.50;99.90;;;;;;5029324;28;20017;-67
2022/03/15 12:11:37;;;;;;;6.82;1.30;;;19.50;99.90;;;;;;5031666;28;20039;-63
2022/03/15 12:14:09;;;;;;;3.83;1.63;;;19.50;99.90;;;;;;5034316;28;20032;-61
2022/03/15 12:16:41;;;;;;;2.88;0.98;;;19.50;99.90;;;;;;5031131;28;20480;-62
2022/03/15 12:19:14;;;;;;;7.68;1.17;;;19.60;99.90;;;;;;5030873;28;20029;-63
2022/03/15 12:22:00;;;;;;;7.20;1.63;;;19.70;99.90;;;;;;5033719;28;20451;-68
2022/03/15 12:24:37;;;;;;;5.88;1.27;;;19.70;99.90;;;;;;5037899;28;20055;-62
2022/03/15 12:27:09;;;;;;;3.50;1.13;;;19.80;99.90;;;;;;5031218;28;20086;-69
2022/03/15 12:29:37;;;;;;;4.82;1.48;;;19.80;99.90;;;;;;5034218;28;20029;-61
2022/03/15 12:32:13;;;;;;;5.05;1.05;;;19.80;99.90;;;;;;5036873;28;20048;-62
2022/03/15 12:34:44;;;;;;;5.28;1.35;;;19.70;99.90;;;;;;5033672;28;20116;-62
2022/03/15 12:37:12;;;;;;;2.60;0.80;;;19.70;99.90;;;;;;5030577;28;20048;-67
2022/03/15 12:39:39;;;;;;;2.08;0.95;;;19.70;99.90;;;;;;5027778;28;20033;-66
2022/03/15 12:42:26;;;;;;;3.53;0.90;;;19.70;99.90;;;;;;5033259;28;20325;-69
2022/03/15 12:45:07;;;;;;;3.45;1.20;;;19.60;99.90;;;;;;5031337;28;20033;-67
2022/03/15 12:47:39;;;;;;;5.88;1.10;;;19.40;99.90;;;;;;5031565;28;20086;-70
2022/03/15 12:50:18;;;;;;;5.93;1.40;;;19.40;99.90;;;;;;5031780;28;20472;-68
2022/03/15 12:52:59;;;;;;;7.75;1.85;;;19.30;99.90;;;;;;5035377;28;20076;-61
2022/03/15 12:55:29;;;;;;;6.80;1.40;;;19.20;99.90;;;;;;5037271;28;20029;-62
2022/03/15 12:58:02;;;;;;;5.30;1.77;;;19.10;99.90;;;;;;5036123;28;20072;-68